Mammoth, West Virginia
Current Conditions -  °F | °C
As of 11:54 PM on Friday 19 Dec 2014 (Local Time) from KCRW Reporting Station
Overcast Overcast  
Wind Chill: -4°   Ceiling: 2100
Heat Index: -1°   Visibility: 10mi
Dew Point: -6°   Wind: 5mph
Humidity: 72%   Direction: 70°ENE
Pressure: 30.25"   Gusts: NA
Location:  38.26°N, 81.37°W
Report Text: KCRW 200454Z 07004KT 10SM OVC021 M01/M06 A3025 RMK AO2 SLP253 T10111056 400001022
Loading
Personal Weather Stations






























Interactive Weather Map New forecast layout! Learn more

10-Day Weather Forecast

Advertisements
Track Severe Weather on mobile